sensor_id;sensor_type;location;lat;lon;timestamp;pressure;altitude;pressure_sealevel;temperature
71564;BMP180;59391;52.504;13.438;2023-02-28T00:00:32;102725.00;;;7.30
71564;BMP180;59391;52.504;13.438;2023-02-28T00:02:58;102724.00;;;7.30
71564;BMP180;59391;52.504;13.438;2023-02-28T00:05:26;102721.00;;;7.30
71564;BMP180;59391;52.504;13.438;2023-02-28T00:07:52;102727.00;;;7.30
71564;BMP180;59391;52.504;13.438;2023-02-28T00:10:23;102726.00;;;7.30
71564;BMP180;59391;52.504;13.438;2023-02-28T00:12:51;102729.00;;;7.30
71564;BMP180;59391;52.504;13.438;2023-02-28T00:15:18;102728.00;;;7.30
71564;BMP180;59391;52.504;13.438;2023-02-28T00:17:44;102728.00;;;7.30
71564;BMP180;59391;52.504;13.438;2023-02-28T00:20:12;102734.00;;;7.30
71564;BMP180;59391;52.504;13.438;2023-02-28T00:22:42;102735.00;;;7.30
71564;BMP180;59391;52.504;13.438;2023-02-28T00:25:10;102712.00;;;7.30
71564;BMP180;59391;52.504;13.438;2023-02-28T00:27:39;102736.00;;;7.20
71564;BMP180;59391;52.504;13.438;2023-02-28T00:30:08;102731.00;;;7.30
71564;BMP180;59391;52.504;13.438;2023-02-28T00:32:35;102729.00;;;7.20
71564;BMP180;59391;52.504;13.438;2023-02-28T00:35:01;102735.00;;;7.20
71564;BMP180;59391;52.504;13.438;2023-02-28T00:37:27;102722.00;;;7.20
71564;BMP180;59391;52.504;13.438;2023-02-28T00:39:53;102721.00;;;7.20
71564;BMP180;59391;52.504;13.438;2023-02-28T00:42:18;102728.00;;;7.20
71564;BMP180;59391;52.504;13.438;2023-02-28T00:44:44;102725.00;;;7.20
71564;BMP180;59391;52.504;13.438;2023-02-28T00:47:10;102736.00;;;7.20
71564;BMP180;59391;52.504;13.438;2023-02-28T00:49:35;102729.00;;;7.20
71564;BMP180;59391;52.504;13.438;2023-02-28T00:52:01;102717.00;;;7.20
71564;BMP180;59391;52.504;13.438;2023-02-28T00:54:27;102727.00;;;7.10
71564;BMP180;59391;52.504;13.438;2023-02-28T00:56:52;102737.00;;;7.20
71564;BMP180;59391;52.504;13.438;2023-02-28T00:59:18;102734.00;;;7.10
71564;BMP180;59391;52.504;13.438;2023-02-28T01:01:46;102731.00;;;7.10
71564;BMP180;59391;52.504;13.438;2023-02-28T01:04:12;102731.00;;;7.10
71564;BMP180;59391;52.504;13.438;2023-02-28T01:06:38;102733.00;;;7.10
71564;BMP180;59391;52.504;13.438;2023-02-28T01:09:06;102732.00;;;7.00
71564;BMP180;59391;52.504;13.438;2023-02-28T01:11:32;102735.00;;;7.00
71564;BMP180;59391;52.504;13.438;2023-02-28T01:13:58;102719.00;;;7.00
71564;BMP180;59391;52.504;13.438;2023-02-28T01:16:24;102717.00;;;7.00
71564;BMP180;59391;52.504;13.438;2023-02-28T01:18:50;102725.00;;;7.00
71564;BMP180;59391;52.504;13.438;2023-02-28T01:21:19;102721.00;;;7.00
71564;BMP180;59391;52.504;13.438;2023-02-28T01:23:45;102724.00;;;7.00
71564;BMP180;59391;52.504;13.438;2023-02-28T01:26:20;102729.00;;;7.00
71564;BMP180;59391;52.504;13.438;2023-02-28T01:28:49;102717.00;;;7.00
71564;BMP180;59391;52.504;13.438;2023-02-28T01:31:16;102717.00;;;6.90
71564;BMP180;59391;52.504;13.438;2023-02-28T01:33:43;102728.00;;;6.90
71564;BMP180;59391;52.504;13.438;2023-02-28T01:36:14;102717.00;;;6.90
71564;BMP180;59391;52.504;13.438;2023-02-28T01:38:40;102710.00;;;6.80
71564;BMP180;59391;52.504;13.438;2023-02-28T01:41:07;102718.00;;;6.80
71564;BMP180;59391;52.504;13.438;2023-02-28T01:46:08;102714.00;;;6.70
71564;BMP180;59391;52.504;13.438;2023-02-28T01:48:45;102717.00;;;6.70
71564;BMP180;59391;52.504;13.438;2023-02-28T01:51:18;102715.00;;;6.60
71564;BMP180;59391;52.504;13.438;2023-02-28T01:53:52;102717.00;;;6.60
71564;BMP180;59391;52.504;13.438;2023-02-28T01:56:26;102717.00;;;6.50
71564;BMP180;59391;52.504;13.438;2023-02-28T01:58:54;102720.00;;;6.50
71564;BMP180;59391;52.504;13.438;2023-02-28T02:01:22;102719.00;;;6.40
71564;BMP180;59391;52.504;13.438;2023-02-28T02:03:54;102717.00;;;6.40
71564;BMP180;59391;52.504;13.438;2023-02-28T02:06:38;102717.00;;;6.30
71564;BMP180;59391;52.504;13.438;2023-02-28T02:09:05;102718.00;;;6.30
71564;BMP180;59391;52.504;13.438;2023-02-28T02:11:32;102720.00;;;6.20
71564;BMP180;59391;52.504;13.438;2023-02-28T02:17:14;102717.00;;;6.10
71564;BMP180;59391;52.504;13.438;2023-02-28T02:20:29;102712.00;;;6.10
71564;BMP180;59391;52.504;13.438;2023-02-28T02:23:47;102719.00;;;6.00
71564;BMP180;59391;52.504;13.438;2023-02-28T02:32:58;102708.00;;;5.80
71564;BMP180;59391;52.504;13.438;2023-02-28T02:35:55;102698.00;;;5.80
71564;BMP180;59391;52.504;13.438;2023-02-28T02:38:49;102715.00;;;5.80
71564;BMP180;59391;52.504;13.438;2023-02-28T02:41:34;102710.00;;;5.70
71564;BMP180;59391;52.504;13.438;2023-02-28T02:44:27;102717.00;;;5.70
71564;BMP180;59391;52.504;13.438;2023-02-28T02:47:02;102709.00;;;5.60
71564;BMP180;59391;52.504;13.438;2023-02-28T02:49:36;102718.00;;;5.60
71564;BMP180;59391;52.504;13.438;2023-02-28T02:52:09;102711.00;;;5.60
71564;BMP180;59391;52.504;13.438;2023-02-28T02:54:41;102721.00;;;5.60
71564;BMP180;59391;52.504;13.438;2023-02-28T02:57:17;102703.00;;;5.50
71564;BMP180;59391;52.504;13.438;2023-02-28T02:59:44;102715.00;;;5.50
71564;BMP180;59391;52.504;13.438;2023-02-28T03:02:14;102723.00;;;5.50
71564;BMP180;59391;52.504;13.438;2023-02-28T03:04:52;102724.00;;;5.50
71564;BMP180;59391;52.504;13.438;2023-02-28T03:07:18;102724.00;;;5.50
71564;BMP180;59391;52.504;13.438;2023-02-28T03:09:57;102712.00;;;5.50
71564;BMP180;59391;52.504;13.438;2023-02-28T03:12:40;102718.00;;;5.50
71564;BMP180;59391;52.504;13.438;2023-02-28T03:15:35;102724.00;;;5.50
71564;BMP180;59391;52.504;13.438;2023-02-28T03:18:10;102718.00;;;5.50
71564;BMP180;59391;52.504;13.438;2023-02-28T03:21:02;102724.00;;;5.50
71564;BMP180;59391;52.504;13.438;2023-02-28T03:24:49;102729.00;;;5.50
71564;BMP180;59391;52.504;13.438;2023-02-28T03:27:17;102721.00;;;5.50
71564;BMP180;59391;52.504;13.438;2023-02-28T03:29:58;102722.00;;;5.50
71564;BMP180;59391;52.504;13.438;2023-02-28T03:32:34;102724.00;;;5.50
71564;BMP180;59391;52.504;13.438;2023-02-28T03:35:09;102719.00;;;5.50
71564;BMP180;59391;52.504;13.438;2023-02-28T03:37:41;102728.00;;;5.50
71564;BMP180;59391;52.504;13.438;2023-02-28T03:40:14;102733.00;;;5.50
71564;BMP180;59391;52.504;13.438;2023-02-28T03:42:45;102729.00;;;5.40
71564;BMP180;59391;52.504;13.438;2023-02-28T03:45:20;102725.00;;;5.40
71564;BMP180;59391;52.504;13.438;2023-02-28T03:50:45;102736.00;;;5.30
71564;BMP180;59391;52.504;13.438;2023-02-28T03:53:20;102735.00;;;5.30
71564;BMP180;59391;52.504;13.438;2023-02-28T03:55:58;102726.00;;;5.30
71564;BMP180;59391;52.504;13.438;2023-02-28T03:58:43;102724.00;;;5.20
71564;BMP180;59391;52.504;13.438;2023-02-28T04:01:20;102720.00;;;5.20
71564;BMP180;59391;52.504;13.438;2023-02-28T04:03:47;102728.00;;;5.20
71564;BMP180;59391;52.504;13.438;2023-02-28T04:06:21;102739.00;;;5.20
71564;BMP180;59391;52.504;13.438;2023-02-28T04:08:48;102741.00;;;5.10
71564;BMP180;59391;52.504;13.438;2023-02-28T04:11:23;102736.00;;;5.10
71564;BMP180;59391;52.504;13.438;2023-02-28T04:13:52;102741.00;;;5.10
71564;BMP180;59391;52.504;13.438;2023-02-28T04:16:18;102740.00;;;5.10
71564;BMP180;59391;52.504;13.438;2023-02-28T04:18:44;102723.00;;;5.00
71564;BMP180;59391;52.504;13.438;2023-02-28T04:21:11;102738.00;;;5.00
71564;BMP180;59391;52.504;13.438;2023-02-28T04:23:37;102741.00;;;5.00
71564;BMP180;59391;52.504;13.438;2023-02-28T04:26:03;102740.00;;;5.00
71564;BMP180;59391;52.504;13.438;2023-02-28T04:28:29;102735.00;;;5.00
71564;BMP180;59391;52.504;13.438;2023-02-28T04:30:57;102731.00;;;5.00
71564;BMP180;59391;52.504;13.438;2023-02-28T04:33:23;102745.00;;;5.00
71564;BMP180;59391;52.504;13.438;2023-02-28T04:36:03;102741.00;;;4.90
71564;BMP180;59391;52.504;13.438;2023-02-28T04:38:34;102750.00;;;4.90
71564;BMP180;59391;52.504;13.438;2023-02-28T04:41:00;102746.00;;;4.90
71564;BMP180;59391;52.504;13.438;2023-02-28T04:43:27;102738.00;;;4.90
71564;BMP180;59391;52.504;13.438;2023-02-28T04:45:55;102746.00;;;4.90
71564;BMP180;59391;52.504;13.438;2023-02-28T04:48:30;102723.00;;;4.90
71564;BMP180;59391;52.504;13.438;2023-02-28T04:51:05;102743.00;;;4.80
71564;BMP180;59391;52.504;13.438;2023-02-28T04:53:32;102748.00;;;4.80
71564;BMP180;59391;52.504;13.438;2023-02-28T04:55:58;102752.00;;;4.80
71564;BMP180;59391;52.504;13.438;2023-02-28T04:58:24;102744.00;;;4.80
71564;BMP180;59391;52.504;13.438;2023-02-28T05:00:53;102748.00;;;4.80
71564;BMP180;59391;52.504;13.438;2023-02-28T05:03:20;102745.00;;;4.80
71564;BMP180;59391;52.504;13.438;2023-02-28T05:05:47;102757.00;;;4.80
71564;BMP180;59391;52.504;13.438;2023-02-28T05:08:13;102744.00;;;4.70
71564;BMP180;59391;52.504;13.438;2023-02-28T05:10:38;102760.00;;;4.70
71564;BMP180;59391;52.504;13.438;2023-02-28T05:13:04;102761.00;;;4.70
71564;BMP180;59391;52.504;13.438;2023-02-28T05:15:30;102765.00;;;4.70
71564;BMP180;59391;52.504;13.438;2023-02-28T05:17:55;102763.00;;;4.70
71564;BMP180;59391;52.504;13.438;2023-02-28T05:20:21;102752.00;;;4.70
71564;BMP180;59391;52.504;13.438;2023-02-28T05:22:47;102769.00;;;4.70
71564;BMP180;59391;52.504;13.438;2023-02-28T05:25:20;102770.00;;;4.70
71564;BMP180;59391;52.504;13.438;2023-02-28T05:27:47;102769.00;;;4.70
71564;BMP180;59391;52.504;13.438;2023-02-28T05:30:13;102775.00;;;4.70
71564;BMP180;59391;52.504;13.438;2023-02-28T05:32:40;102767.00;;;4.70
71564;BMP180;59391;52.504;13.438;2023-02-28T05:35:11;102776.00;;;4.70
71564;BMP180;59391;52.504;13.438;2023-02-28T05:37:38;102754.00;;;4.60
71564;BMP180;59391;52.504;13.438;2023-02-28T05:40:06;102762.00;;;4.60
71564;BMP180;59391;52.504;13.438;2023-02-28T05:42:32;102777.00;;;4.60
71564;BMP180;59391;52.504;13.438;2023-02-28T05:44:58;102765.00;;;4.60
71564;BMP180;59391;52.504;13.438;2023-02-28T05:47:24;102768.00;;;4.60
71564;BMP180;59391;52.504;13.438;2023-02-28T05:49:50;102780.00;;;4.60
71564;BMP180;59391;52.504;13.438;2023-02-28T05:52:15;102783.00;;;4.60
71564;BMP180;59391;52.504;13.438;2023-02-28T05:54:41;102769.00;;;4.60
71564;BMP180;59391;52.504;13.438;2023-02-28T05:57:07;102773.00;;;4.60
71564;BMP180;59391;52.504;13.438;2023-02-28T05:59:33;102783.00;;;4.60
71564;BMP180;59391;52.504;13.438;2023-02-28T06:01:58;102784.00;;;4.60
71564;BMP180;59391;52.504;13.438;2023-02-28T06:04:24;102781.00;;;4.60
71564;BMP180;59391;52.504;13.438;2023-02-28T06:06:50;102784.00;;;4.60
71564;BMP180;59391;52.504;13.438;2023-02-28T06:09:17;102783.00;;;4.60
71564;BMP180;59391;52.504;13.438;2023-02-28T06:11:43;102793.00;;;4.60
71564;BMP180;59391;52.504;13.438;2023-02-28T06:14:17;102785.00;;;4.60
71564;BMP180;59391;52.504;13.438;2023-02-28T06:16:43;102785.00;;;4.60
71564;BMP180;59391;52.504;13.438;2023-02-28T06:19:09;102792.00;;;4.60
71564;BMP180;59391;52.504;13.438;2023-02-28T06:21:35;102782.00;;;4.60
71564;BMP180;59391;52.504;13.438;2023-02-28T06:24:02;102789.00;;;4.70
71564;BMP180;59391;52.504;13.438;2023-02-28T06:26:28;102794.00;;;4.70
71564;BMP180;59391;52.504;13.438;2023-02-28T06:28:54;102795.00;;;4.70
71564;BMP180;59391;52.504;13.438;2023-02-28T06:31:20;102793.00;;;4.70
71564;BMP180;59391;52.504;13.438;2023-02-28T06:33:47;102783.00;;;4.70
71564;BMP180;59391;52.504;13.438;2023-02-28T06:36:15;102797.00;;;4.70
71564;BMP180;59391;52.504;13.438;2023-02-28T06:38:42;102803.00;;;4.70
71564;BMP180;59391;52.504;13.438;2023-02-28T06:41:08;102809.00;;;4.80
71564;BMP180;59391;52.504;13.438;2023-02-28T06:43:38;102811.00;;;4.80
71564;BMP180;59391;52.504;13.438;2023-02-28T06:46:07;102808.00;;;4.80
71564;BMP180;59391;52.504;13.438;2023-02-28T06:48:34;102809.00;;;4.80
71564;BMP180;59391;52.504;13.438;2023-02-28T06:51:09;102815.00;;;4.90
71564;BMP180;59391;52.504;13.438;2023-02-28T06:53:36;102829.00;;;4.90
71564;BMP180;59391;52.504;13.438;2023-02-28T06:56:11;102824.00;;;4.90
71564;BMP180;59391;52.504;13.438;2023-02-28T06:58:41;102816.00;;;4.90
71564;BMP180;59391;52.504;13.438;2023-02-28T07:01:08;102834.00;;;5.00
71564;BMP180;59391;52.504;13.438;2023-02-28T07:03:35;102825.00;;;5.00
71564;BMP180;59391;52.504;13.438;2023-02-28T07:06:01;102828.00;;;5.10
71564;BMP180;59391;52.504;13.438;2023-02-28T07:08:28;102816.00;;;5.10
71564;BMP180;59391;52.504;13.438;2023-02-28T07:10:57;102825.00;;;5.10
71564;BMP180;59391;52.504;13.438;2023-02-28T07:13:24;102829.00;;;5.20
71564;BMP180;59391;52.504;13.438;2023-02-28T07:16:04;102823.00;;;5.20
71564;BMP180;59391;52.504;13.438;2023-02-28T07:18:31;102822.00;;;5.30
71564;BMP180;59391;52.504;13.438;2023-02-28T07:20:57;102827.00;;;5.30
71564;BMP180;59391;52.504;13.438;2023-02-28T07:23:23;102830.00;;;5.40
71564;BMP180;59391;52.504;13.438;2023-02-28T07:25:50;102824.00;;;5.40
71564;BMP180;59391;52.504;13.438;2023-02-28T07:28:16;102829.00;;;5.50
71564;BMP180;59391;52.504;13.438;2023-02-28T07:30:42;102837.00;;;5.50
71564;BMP180;59391;52.504;13.438;2023-02-28T07:33:08;102843.00;;;5.60
71564;BMP180;59391;52.504;13.438;2023-02-28T07:35:34;102838.00;;;5.60
71564;BMP180;59391;52.504;13.438;2023-02-28T07:38:00;102841.00;;;5.70
71564;BMP180;59391;52.504;13.438;2023-02-28T07:40:26;102833.00;;;5.70
71564;BMP180;59391;52.504;13.438;2023-02-28T07:42:52;102830.00;;;5.80
71564;BMP180;59391;52.504;13.438;2023-02-28T07:45:17;102844.00;;;5.90
71564;BMP180;59391;52.504;13.438;2023-02-28T07:47:44;102835.00;;;5.90
71564;BMP180;59391;52.504;13.438;2023-02-28T07:50:13;102835.00;;;6.00
71564;BMP180;59391;52.504;13.438;2023-02-28T07:52:40;102838.00;;;6.10
71564;BMP180;59391;52.504;13.438;2023-02-28T07:55:08;102839.00;;;6.20
71564;BMP180;59391;52.504;13.438;2023-02-28T07:57:35;102838.00;;;6.20
71564;BMP180;59391;52.504;13.438;2023-02-28T08:00:03;102831.00;;;6.30
71564;BMP180;59391;52.504;13.438;2023-02-28T08:02:29;102830.00;;;6.40
71564;BMP180;59391;52.504;13.438;2023-02-28T08:04:55;102831.00;;;6.50
71564;BMP180;59391;52.504;13.438;2023-02-28T08:07:21;102846.00;;;6.50
71564;BMP180;59391;52.504;13.438;2023-02-28T08:09:46;102836.00;;;6.70
71564;BMP180;59391;52.504;13.438;2023-02-28T08:12:12;102830.00;;;7.30
71564;BMP180;59391;52.504;13.438;2023-02-28T08:14:38;102842.00;;;8.00
71564;BMP180;59391;52.504;13.438;2023-02-28T08:17:05;102838.00;;;8.80
71564;BMP180;59391;52.504;13.438;2023-02-28T08:19:32;102833.00;;;9.60
71564;BMP180;59391;52.504;13.438;2023-02-28T08:21:58;102833.00;;;10.30
71564;BMP180;59391;52.504;13.438;2023-02-28T08:24:24;102836.00;;;11.00
71564;BMP180;59391;52.504;13.438;2023-02-28T08:26:49;102830.00;;;11.60
71564;BMP180;59391;52.504;13.438;2023-02-28T08:29:15;102829.00;;;12.10
71564;BMP180;59391;52.504;13.438;2023-02-28T08:31:42;102845.00;;;12.60
71564;BMP180;59391;52.504;13.438;2023-02-28T08:34:14;102837.00;;;13.00
71564;BMP180;59391;52.504;13.438;2023-02-28T08:36:41;102839.00;;;13.10
71564;BMP180;59391;52.504;13.438;2023-02-28T08:39:07;102839.00;;;13.10
71564;BMP180;59391;52.504;13.438;2023-02-28T08:41:33;102845.00;;;13.00
71564;BMP180;59391;52.504;13.438;2023-02-28T08:43:59;102835.00;;;12.90
71564;BMP180;59391;52.504;13.438;2023-02-28T08:46:25;102832.00;;;12.60
71564;BMP180;59391;52.504;13.438;2023-02-28T08:48:53;102842.00;;;12.50
71564;BMP180;59391;52.504;13.438;2023-02-28T08:51:20;102842.00;;;12.40
71564;BMP180;59391;52.504;13.438;2023-02-28T08:53:54;102842.00;;;12.30
71564;BMP180;59391;52.504;13.438;2023-02-28T08:56:21;102844.00;;;12.30
71564;BMP180;59391;52.504;13.438;2023-02-28T08:58:49;102831.00;;;12.20
71564;BMP180;59391;52.504;13.438;2023-02-28T09:01:22;102857.00;;;12.30
71564;BMP180;59391;52.504;13.438;2023-02-28T09:03:50;102848.00;;;12.30
71564;BMP180;59391;52.504;13.438;2023-02-28T09:06:18;102841.00;;;12.40
71564;BMP180;59391;52.504;13.438;2023-02-28T09:08:44;102842.00;;;12.40
71564;BMP180;59391;52.504;13.438;2023-02-28T09:11:11;102848.00;;;12.50
71564;BMP180;59391;52.504;13.438;2023-02-28T09:13:38;102846.00;;;12.70
71564;BMP180;59391;52.504;13.438;2023-02-28T09:16:07;102850.00;;;13.00
71564;BMP180;59391;52.504;13.438;2023-02-28T09:18:36;102842.00;;;13.20
71564;BMP180;59391;52.504;13.438;2023-02-28T09:21:08;102851.00;;;13.50
71564;BMP180;59391;52.504;13.438;2023-02-28T09:23:35;102842.00;;;14.00
71564;BMP180;59391;52.504;13.438;2023-02-28T09:26:00;102836.00;;;14.50
71564;BMP180;59391;52.504;13.438;2023-02-28T09:28:26;102842.00;;;15.10
71564;BMP180;59391;52.504;13.438;2023-02-28T09:30:54;102839.00;;;15.50
71564;BMP180;59391;52.504;13.438;2023-02-28T09:33:21;102842.00;;;15.80
71564;BMP180;59391;52.504;13.438;2023-02-28T09:35:49;102852.00;;;16.10
71564;BMP180;59391;52.504;13.438;2023-02-28T09:38:15;102837.00;;;16.40
71564;BMP180;59391;52.504;13.438;2023-02-28T09:40:57;102841.00;;;16.80
71564;BMP180;59391;52.504;13.438;2023-02-28T09:43:28;102840.00;;;17.20
71564;BMP180;59391;52.504;13.438;2023-02-28T09:46:05;102843.00;;;17.50
71564;BMP180;59391;52.504;13.438;2023-02-28T09:48:39;102848.00;;;17.50
71564;BMP180;59391;52.504;13.438;2023-02-28T09:54:24;102846.00;;;17.80
71564;BMP180;59391;52.504;13.438;2023-02-28T09:56:56;102852.00;;;17.90
71564;BMP180;59391;52.504;13.438;2023-02-28T09:59:58;102852.00;;;17.70
71564;BMP180;59391;52.504;13.438;2023-02-28T10:06:03;102850.00;;;17.80
71564;BMP180;59391;52.504;13.438;2023-02-28T10:08:45;102854.00;;;17.80
71564;BMP180;59391;52.504;13.438;2023-02-28T10:11:16;102855.00;;;17.80
71564;BMP180;59391;52.504;13.438;2023-02-28T10:14:04;102850.00;;;17.60
71564;BMP180;59391;52.504;13.438;2023-02-28T10:16:41;102856.00;;;17.80
71564;BMP180;59391;52.504;13.438;2023-02-28T10:19:39;102853.00;;;18.00
71564;BMP180;59391;52.504;13.438;2023-02-28T10:22:29;102854.00;;;18.00
71564;BMP180;59391;52.504;13.438;2023-02-28T10:24:58;102848.00;;;18.10
71564;BMP180;59391;52.504;13.438;2023-02-28T10:27:31;102851.00;;;18.10
71564;BMP180;59391;52.504;13.438;2023-02-28T10:30:00;102850.00;;;18.20
71564;BMP180;59391;52.504;13.438;2023-02-28T10:32:35;102845.00;;;18.20
71564;BMP180;59391;52.504;13.438;2023-02-28T10:35:25;102850.00;;;18.20
71564;BMP180;59391;52.504;13.438;2023-02-28T10:37:57;102848.00;;;18.40
71564;BMP180;59391;52.504;13.438;2023-02-28T10:43:02;102846.00;;;19.40
71564;BMP180;59391;52.504;13.438;2023-02-28T10:45:34;102852.00;;;19.70
71564;BMP180;59391;52.504;13.438;2023-02-28T10:48:23;102850.00;;;19.70
71564;BMP180;59391;52.504;13.438;2023-02-28T10:50:53;102853.00;;;19.70
71564;BMP180;59391;52.504;13.438;2023-02-28T10:53:30;102838.00;;;19.80
71564;BMP180;59391;52.504;13.438;2023-02-28T10:56:09;102846.00;;;20.10
71564;BMP180;59391;52.504;13.438;2023-02-28T11:01:38;102833.00;;;20.80
71564;BMP180;59391;52.504;13.438;2023-02-28T11:04:32;102833.00;;;20.80
71564;BMP180;59391;52.504;13.438;2023-02-28T11:09:35;102825.00;;;20.60
71564;BMP180;59391;52.504;13.438;2023-02-28T11:12:05;102823.00;;;20.50
71564;BMP180;59391;52.504;13.438;2023-02-28T11:14:47;102820.00;;;20.80
71564;BMP180;59391;52.504;13.438;2023-02-28T11:17:20;102811.00;;;21.30
71564;BMP180;59391;52.504;13.438;2023-02-28T11:19:51;102819.00;;;21.60
71564;BMP180;59391;52.504;13.438;2023-02-28T11:22:25;102816.00;;;21.90
71564;BMP180;59391;52.504;13.438;2023-02-28T11:24:57;102811.00;;;22.20
71564;BMP180;59391;52.504;13.438;2023-02-28T11:29:58;102819.00;;;23.20
71564;BMP180;59391;52.504;13.438;2023-02-28T11:32:29;102805.00;;;23.50
71564;BMP180;59391;52.504;13.438;2023-02-28T11:37:36;102814.00;;;24.20
71564;BMP180;59391;52.504;13.438;2023-02-28T11:40:05;102815.00;;;24.60
71564;BMP180;59391;52.504;13.438;2023-02-28T11:45:45;102813.00;;;25.40
71564;BMP180;59391;52.504;13.438;2023-02-28T11:48:27;102812.00;;;25.30
71564;BMP180;59391;52.504;13.438;2023-02-28T11:54:08;102819.00;;;25.70
71564;BMP180;59391;52.504;13.438;2023-02-28T11:56:47;102820.00;;;26.00
71564;BMP180;59391;52.504;13.438;2023-02-28T12:02:29;102808.00;;;26.30
71564;BMP180;59391;52.504;13.438;2023-02-28T12:05:10;102803.00;;;26.30
71564;BMP180;59391;52.504;13.438;2023-02-28T12:07:58;102812.00;;;26.30
71564;BMP180;59391;52.504;13.438;2023-02-28T12:10:40;102807.00;;;26.20
71564;BMP180;59391;52.504;13.438;2023-02-28T12:13:43;102805.00;;;26.40
71564;BMP180;59391;52.504;13.438;2023-02-28T12:16:41;102811.00;;;26.70
71564;BMP180;59391;52.504;13.438;2023-02-28T12:22:12;102798.00;;;27.00
71564;BMP180;59391;52.504;13.438;2023-02-28T12:27:22;102798.00;;;27.40
71564;BMP180;59391;52.504;13.438;2023-02-28T12:29:55;102796.00;;;27.70
71564;BMP180;59391;52.504;13.438;2023-02-28T12:32:31;102797.00;;;27.80
71564;BMP180;59391;52.504;13.438;2023-02-28T12:35:06;102790.00;;;27.90
71564;BMP180;59391;52.504;13.438;2023-02-28T12:40:18;102774.00;;;28.00
71564;BMP180;59391;52.504;13.438;2023-02-28T12:42:50;102784.00;;;27.80
71564;BMP180;59391;52.504;13.438;2023-02-28T12:45:28;102774.00;;;27.70
71564;BMP180;59391;52.504;13.438;2023-02-28T12:48:04;102766.00;;;27.80
71564;BMP180;59391;52.504;13.438;2023-02-28T12:50:33;102750.00;;;27.70
71564;BMP180;59391;52.504;13.438;2023-02-28T12:53:12;102750.00;;;27.50
71564;BMP180;59391;52.504;13.438;2023-02-28T12:55:46;102753.00;;;27.60
71564;BMP180;59391;52.504;13.438;2023-02-28T12:58:33;102746.00;;;27.60
71564;BMP180;59391;52.504;13.438;2023-02-28T13:10:23;102724.00;;;27.30
71564;BMP180;59391;52.504;13.438;2023-02-28T13:12:52;102719.00;;;27.40
71564;BMP180;59391;52.504;13.438;2023-02-28T13:15:27;102727.00;;;27.20
71564;BMP180;59391;52.504;13.438;2023-02-28T13:17:58;102728.00;;;26.90
71564;BMP180;59391;52.504;13.438;2023-02-28T13:20:29;102722.00;;;26.90
71564;BMP180;59391;52.504;13.438;2023-02-28T13:22:58;102738.00;;;27.00
71564;BMP180;59391;52.504;13.438;2023-02-28T13:28:13;102743.00;;;27.30
71564;BMP180;59391;52.504;13.438;2023-02-28T13:36:23;102740.00;;;27.70
71564;BMP180;59391;52.504;13.438;2023-02-28T13:39:47;102732.00;;;27.70
71564;BMP180;59391;52.504;13.438;2023-02-28T13:41:47;102740.00;;;27.00
71564;BMP180;59391;52.504;13.438;2023-02-28T13:44:19;102738.00;;;26.30
71564;BMP180;59391;52.504;13.438;2023-02-28T13:51:55;102720.00;;;25.20
71564;BMP180;59391;52.504;13.438;2023-02-28T13:55:19;102711.00;;;24.60
71564;BMP180;59391;52.504;13.438;2023-02-28T13:58:08;102714.00;;;23.70
71564;BMP180;59391;52.504;13.438;2023-02-28T14:01:00;102707.00;;;23.40
71564;BMP180;59391;52.504;13.438;2023-02-28T14:03:55;102711.00;;;23.20
71564;BMP180;59391;52.504;13.438;2023-02-28T14:06:31;102710.00;;;23.00
71564;BMP180;59391;52.504;13.438;2023-02-28T14:11:41;102708.00;;;23.20
71564;BMP180;59391;52.504;13.438;2023-02-28T14:14:09;102708.00;;;23.60
71564;BMP180;59391;52.504;13.438;2023-02-28T14:16:57;102706.00;;;24.20
71564;BMP180;59391;52.504;13.438;2023-02-28T14:19:29;102714.00;;;24.60
71564;BMP180;59391;52.504;13.438;2023-02-28T14:22:24;102704.00;;;24.90
71564;BMP180;59391;52.504;13.438;2023-02-28T14:25:33;102711.00;;;25.10
71564;BMP180;59391;52.504;13.438;2023-02-28T14:28:39;102714.00;;;25.00
71564;BMP180;59391;52.504;13.438;2023-02-28T14:31:12;102713.00;;;24.70
71564;BMP180;59391;52.504;13.438;2023-02-28T14:34:12;102702.00;;;24.30
71564;BMP180;59391;52.504;13.438;2023-02-28T14:36:42;102700.00;;;24.10
71564;BMP180;59391;52.504;13.438;2023-02-28T14:39:19;102703.00;;;23.90
71564;BMP180;59391;52.504;13.438;2023-02-28T14:41:47;102711.00;;;23.80
71564;BMP180;59391;52.504;13.438;2023-02-28T14:46:45;102697.00;;;23.60
71564;BMP180;59391;52.504;13.438;2023-02-28T14:49:45;102697.00;;;23.40
71564;BMP180;59391;52.504;13.438;2023-02-28T14:52:19;102701.00;;;23.20
71564;BMP180;59391;52.504;13.438;2023-02-28T14:54:46;102699.00;;;22.90
71564;BMP180;59391;52.504;13.438;2023-02-28T14:57:29;102701.00;;;22.90
71564;BMP180;59391;52.504;13.438;2023-02-28T15:00:29;102703.00;;;22.70
71564;BMP180;59391;52.504;13.438;2023-02-28T15:03:01;102703.00;;;22.50
71564;BMP180;59391;52.504;13.438;2023-02-28T15:05:33;102695.00;;;22.30
71564;BMP180;59391;52.504;13.438;2023-02-28T15:08:11;102689.00;;;21.90
71564;BMP180;59391;52.504;13.438;2023-02-28T15:10:39;102691.00;;;21.40
71564;BMP180;59391;52.504;13.438;2023-02-28T15:13:13;102694.00;;;20.90
71564;BMP180;59391;52.504;13.438;2023-02-28T15:15:48;102689.00;;;20.40
71564;BMP180;59391;52.504;13.438;2023-02-28T15:18:43;102690.00;;;19.80
71564;BMP180;59391;52.504;13.438;2023-02-28T15:21:22;102684.00;;;19.10
71564;BMP180;59391;52.504;13.438;2023-02-28T15:24:14;102684.00;;;18.40
71564;BMP180;59391;52.504;13.438;2023-02-28T15:26:53;102688.00;;;17.80
71564;BMP180;59391;52.504;13.438;2023-02-28T15:29:24;102682.00;;;17.20
71564;BMP180;59391;52.504;13.438;2023-02-28T15:32:06;102676.00;;;16.70
71564;BMP180;59391;52.504;13.438;2023-02-28T15:34:41;102669.00;;;16.30
71564;BMP180;59391;52.504;13.438;2023-02-28T15:39:55;102662.00;;;15.50
71564;BMP180;59391;52.504;13.438;2023-02-28T15:42:23;102659.00;;;15.20
71564;BMP180;59391;52.504;13.438;2023-02-28T15:44:52;102681.00;;;14.90